Time;durP1;ratioP1;P1;durP2;ratioP2;P2;SDS_P1;SDS_P2;PMS_P1;PMS_P2;Temp;Humidity;BMP_temperature;BMP_pressure;BME280_temperature;BME280_humidity;BME280_pressure;Samples;Min_cycle;Max_cycle;Signal;HPM_P1;HPM_P2
2023/07/26 00:00:26;;;;;;;7.00;2.60;;;10.30;99.90;;;10.27;100.00;100069.44;4976494;28;20041;-84
2023/07/26 00:02:52;;;;;;;5.20;2.20;;;10.30;99.90;;;10.16;100.00;100060.16;4976265;28;20045;-85
2023/07/26 00:05:19;;;;;;;6.00;2.30;;;10.20;99.90;;;10.07;100.00;100062.34;4974988;28;20042;-84
2023/07/26 00:07:44;;;;;;;5.45;2.35;;;10.10;99.90;;;9.95;100.00;100067.75;4975972;28;20054;-85
2023/07/26 00:10:10;;;;;;;5.00;2.30;;;10.00;99.90;;;9.87;100.00;100060.69;4976262;28;20034;-85
2023/07/26 00:12:36;;;;;;;6.15;2.72;;;9.80;99.90;;;9.64;100.00;100048.56;4976365;28;20114;-85
2023/07/26 00:15:02;;;;;;;6.10;2.30;;;9.70;99.90;;;9.66;100.00;100052.97;4975917;28;20031;-86
2023/07/26 00:17:27;;;;;;;5.95;2.30;;;9.60;99.90;;;9.62;100.00;100055.28;4976982;28;20073;-85
2023/07/26 00:19:53;;;;;;;5.50;2.38;;;9.60;99.90;;;9.59;100.00;100048.41;4975978;28;20035;-85
2023/07/26 00:22:19;;;;;;;8.27;2.88;;;9.50;99.90;;;9.56;100.00;100046.16;4974663;28;20395;-85
2023/07/26 00:24:44;;;;;;;5.93;2.53;;;9.50;99.90;;;9.53;100.00;100043.84;4976525;28;20047;-85
2023/07/26 00:27:12;;;;;;;6.50;2.72;;;9.40;99.90;;;9.52;100.00;100039.47;4977823;28;20039;-83
2023/07/26 00:29:38;;;;;;;9.05;3.00;;;9.40;99.90;;;9.42;100.00;100007.34;4981207;28;20478;-85
2023/07/26 00:32:04;;;;;;;5.65;2.60;;;9.40;99.90;;;9.51;100.00;100029.63;4979862;28;20041;-85
2023/07/26 00:34:30;;;;;;;6.85;2.50;;;9.40;99.90;;;9.42;100.00;100020.09;4990935;28;20039;-84
2023/07/26 00:36:55;;;;;;;7.28;2.72;;;9.40;99.90;;;9.42;100.00;100031.84;4978188;28;20041;-84
2023/07/26 00:39:21;;;;;;;7.45;2.97;;;9.40;99.90;;;9.41;100.00;100021.97;4976687;28;20490;-85
2023/07/26 00:41:47;;;;;;;4.80;2.70;;;9.40;99.90;;;9.42;100.00;100020.94;4976061;28;20483;-84
2023/07/26 00:44:12;;;;;;;7.82;3.00;;;9.40;99.90;;;9.42;100.00;100025.53;4979087;28;20031;-85
2023/07/26 00:46:39;;;;;;;5.65;2.75;;;9.30;99.90;;;9.43;100.00;100027.22;4984180;28;20046;-85
2023/07/26 00:49:05;;;;;;;6.90;2.88;;;9.40;99.90;;;9.42;100.00;100018.22;4975593;28;20122;-84
2023/07/26 00:51:31;;;;;;;6.82;3.03;;;9.40;99.90;;;9.41;100.00;100018.44;4975352;28;20045;-85
2023/07/26 00:53:57;;;;;;;5.70;3.13;;;9.40;99.90;;;9.54;100.00;100020.19;4975552;28;20035;-86
2023/07/26 00:56:23;;;;;;;4.82;3.10;;;9.40;99.90;;;9.56;100.00;100012.63;4975488;28;20414;-84
2023/07/26 00:58:49;;;;;;;7.18;3.22;;;9.50;99.90;;;9.61;100.00;100007.31;4975136;28;20046;-84
2023/07/26 01:01:15;;;;;;;7.15;3.00;;;9.50;99.90;;;9.62;100.00;100012.56;4990149;28;20069;-84
2023/07/26 01:03:41;;;;;;;11.25;3.67;;;9.50;99.90;;;9.61;100.00;100010.06;4991741;28;20086;-85
2023/07/26 01:06:39;;;;;;;8.27;3.25;;;9.50;99.90;;;9.65;100.00;100003.09;4975602;28;20030;-85
2023/07/26 01:09:39;;;;;;;7.70;3.03;;;9.60;99.90;;;9.64;100.00;100001.44;4975926;28;20461;-85
2023/07/26 01:12:14;;;;;;;5.78;3.42;;;9.60;99.90;;;9.60;100.00;100011.97;4980744;28;20457;-85
2023/07/26 01:14:53;;;;;;;6.43;2.97;;;9.50;99.90;;;9.58;100.00;100008.63;4975681;28;20121;-86
2023/07/26 01:17:19;;;;;;;9.43;3.03;;;9.50;99.90;;;9.59;100.00;100023.91;4975172;28;20101;-84
2023/07/26 01:19:45;;;;;;;5.03;3.25;;;9.50;99.90;;;9.56;100.00;100027.09;4975142;28;20031;-85
2023/07/26 01:22:10;;;;;;;7.93;3.13;;;9.50;99.90;;;9.45;100.00;100030.53;4984069;28;20431;-84
2023/07/26 01:24:37;;;;;;;7.22;2.97;;;9.40;99.90;;;9.34;100.00;100030.22;4978697;28;20038;-84
2023/07/26 01:27:03;;;;;;;8.98;3.20;;;9.30;99.90;;;9.33;100.00;100033.16;4959258;28;20430;-84
2023/07/26 01:29:29;;;;;;;5.38;3.10;;;9.20;99.90;;;9.24;100.00;100029.88;4978484;28;20085;-85
2023/07/26 01:31:55;;;;;;;7.90;3.25;;;9.20;99.90;;;9.17;100.00;100020.94;4984111;28;20102;-84
2023/07/26 01:34:21;;;;;;;7.80;3.22;;;9.10;99.90;;;9.19;100.00;100024.28;4974970;28;20035;-84
2023/07/26 01:36:51;;;;;;;7.07;3.22;;;9.10;99.90;;;9.17;100.00;100012.78;4974622;28;20038;-83
2023/07/26 01:39:20;;;;;;;7.47;3.40;;;9.10;99.90;;;9.17;100.00;100012.78;4973277;28;20039;-84
2023/07/26 01:41:47;;;;;;;8.30;3.40;;;9.10;99.90;;;9.18;100.00;100009.00;4981077;28;20047;-82
2023/07/26 01:44:13;;;;;;;5.55;3.22;;;9.10;99.90;;;9.21;100.00;100000.41;4974334;28;20114;-84
2023/07/26 01:46:39;;;;;;;8.85;3.70;;;9.20;99.90;;;9.24;100.00;100007.28;4974265;28;20129;-84
2023/07/26 01:49:04;;;;;;;6.43;3.55;;;9.10;99.90;;;9.17;100.00;99997.31;4974305;28;20498;-84
2023/07/26 01:51:32;;;;;;;8.07;3.20;;;9.10;99.90;;;9.09;100.00;99994.84;4981200;28;20054;-84
2023/07/26 01:53:57;;;;;;;9.30;3.30;;;9.10;99.90;;;9.03;100.00;99993.88;4974273;28;20035;-83
2023/07/26 01:56:24;;;;;;;5.95;3.08;;;9.00;99.90;;;9.03;100.00;99993.88;4974274;28;20065;-84
2023/07/26 01:58:50;;;;;;;6.88;3.35;;;8.90;99.90;;;9.00;100.00;99985.31;4972579;28;20094;-84
2023/07/26 02:01:16;;;;;;;6.82;3.20;;;9.00;99.90;;;8.95;100.00;99988.69;4988929;28;20050;-85
2023/07/26 02:03:42;;;;;;;6.60;3.35;;;8.90;99.90;;;8.92;100.00;99984.53;4972516;28;20034;-85
2023/07/26 02:06:07;;;;;;;7.32;3.78;;;8.90;99.90;;;8.91;100.00;99982.03;4973042;28;20373;-84
2023/07/26 02:08:33;;;;;;;6.43;3.30;;;8.80;99.90;;;8.91;100.00;99973.88;4974197;28;20050;-85
2023/07/26 02:10:59;;;;;;;7.68;3.28;;;8.90;99.90;;;8.94;100.00;99972.59;4980889;28;20030;-84
2023/07/26 02:13:25;;;;;;;11.48;3.45;;;8.90;99.90;;;8.96;100.00;99965.88;4973861;28;20130;-84
2023/07/26 02:15:50;;;;;;;8.57;3.72;;;8.90;99.90;;;8.96;100.00;99971.31;4973777;28;20034;-84
2023/07/26 02:18:16;;;;;;;6.40;3.40;;;8.90;99.90;;;8.94;100.00;99954.38;4972455;28;20038;-84
2023/07/26 02:20:42;;;;;;;8.07;4.18;;;8.90;99.90;;;8.97;100.00;99958.56;4973141;28;20038;-84
2023/07/26 02:23:07;;;;;;;5.45;3.35;;;8.90;99.90;;;8.96;100.00;99956.88;4973543;28;20100;-84
2023/07/26 02:25:34;;;;;;;7.10;3.38;;;8.90;99.90;;;8.92;100.00;99937.44;4994900;28;20380;-84
2023/07/26 02:28:00;;;;;;;9.05;4.18;;;8.90;99.90;;;8.99;100.00;99951.00;4988602;28;20034;-85
2023/07/26 02:30:26;;;;;;;7.95;3.60;;;9.00;99.90;;;9.01;100.00;99941.53;4974137;28;20455;-85
2023/07/26 02:32:52;;;;;;;11.27;3.63;;;9.00;99.90;;;9.02;100.00;99940.50;4985770;28;20042;-85
2023/07/26 02:35:17;;;;;;;7.38;3.58;;;9.00;99.90;;;9.02;100.00;99945.09;4982911;28;20482;-85
2023/07/26 02:37:43;;;;;;;7.43;3.47;;;9.00;99.90;;;9.06;100.00;99944.44;4988210;28;20042;-85
2023/07/26 02:40:10;;;;;;;9.70;3.97;;;9.00;99.90;;;9.15;100.00;99935.97;4997926;28;20038;-84
2023/07/26 02:42:36;;;;;;;9.07;3.65;;;9.10;99.90;;;9.17;100.00;99936.59;4985691;28;20100;-85
2023/07/26 02:45:02;;;;;;;10.05;3.83;;;9.10;99.90;;;9.20;100.00;99944.28;4974986;28;20023;-84
2023/07/26 02:47:32;;;;;;;10.15;3.90;;;9.10;99.90;;;9.21;100.00;99937.78;4973148;28;20430;-84
2023/07/26 02:50:04;;;;;;;9.73;3.95;;;9.10;99.90;;;9.26;100.00;99946.09;4973459;28;20122;-84
2023/07/26 02:52:31;;;;;;;8.32;3.70;;;9.20;99.90;;;9.29;100.00;99933.94;4973660;28;20046;-84
2023/07/26 02:54:57;;;;;;;9.70;4.00;;;9.20;99.90;;;9.31;100.00;99927.25;4974076;28;20426;-84
2023/07/26 02:57:24;;;;;;;9.60;3.67;;;9.20;99.90;;;9.41;100.00;99942.19;4973597;28;20039;-84
2023/07/26 02:59:49;;;;;;;9.13;3.58;;;9.30;99.90;;;9.45;100.00;99943.41;4988680;28;20037;-84
2023/07/26 03:02:15;;;;;;;8.77;3.70;;;9.30;99.90;;;9.50;100.00;99947.13;4973397;28;20046;-84
2023/07/26 03:04:41;;;;;;;5.38;3.30;;;9.30;99.90;;;9.54;100.00;99952.94;4973574;28;20042;-85
2023/07/26 03:07:09;;;;;;;;;;;9.40;99.90;;;9.63;100.00;99956.19;4973463;28;20376;-84
2023/07/26 03:09:34;;;;;;;6.47;3.55;;;9.40;99.90;;;9.70;100.00;99958.84;4973029;28;19928;-85
2023/07/26 03:12:00;;;;;;;8.25;3.42;;;9.50;99.90;;;9.67;100.00;99940.22;4987978;28;20030;-83
2023/07/26 03:14:26;;;;;;;5.55;3.38;;;9.60;99.90;;;9.82;100.00;99970.66;4973037;28;20074;-85
2023/07/26 03:16:52;;;;;;;6.35;3.42;;;9.60;99.90;;;9.85;100.00;99975.63;4973062;28;20041;-85
2023/07/26 03:19:17;;;;;;;8.40;3.60;;;9.70;99.90;;;9.88;100.00;99979.78;4976994;28;20035;-85
2023/07/26 03:21:43;;;;;;;6.72;3.28;;;9.70;99.90;;;9.93;100.00;99994.38;4973216;28;20038;-85
2023/07/26 03:24:09;;;;;;;6.55;3.83;;;9.80;99.90;;;9.98;100.00;99993.72;4971754;28;20038;-86
2023/07/26 03:26:34;;;;;;;8.73;3.25;;;9.80;99.90;;;10.03;100.00;100003.91;4973082;28;20038;-86
2023/07/26 03:29:00;;;;;;;6.13;3.10;;;9.80;99.90;;;10.07;100.00;100007.84;4973154;28;20498;-85
2023/07/26 03:31:26;;;;;;;7.35;3.50;;;9.90;99.90;;;10.16;100.00;100009.19;4988592;28;20093;-85
2023/07/26 03:33:52;;;;;;;5.63;2.92;;;9.90;99.90;;;10.18;100.00;100019.84;4976838;28;20035;-86
2023/07/26 03:36:17;;;;;;;9.52;3.53;;;10.00;99.90;;;10.19;100.00;100019.66;4976666;28;20117;-85
2023/07/26 03:38:43;;;;;;;8.15;3.25;;;10.00;99.90;;;10.24;100.00;100032.59;4975580;28;20035;-84
2023/07/26 03:41:09;;;;;;;8.73;3.20;;;10.10;99.90;;;10.22;100.00;100032.81;4978241;28;20055;-84
2023/07/26 03:43:34;;;;;;;8.52;3.03;;;10.10;99.90;;;10.35;100.00;100041.91;4989971;28;20104;-85
2023/07/26 03:46:00;;;;;;;6.72;2.90;;;10.20;99.90;;;10.39;100.00;100054.00;4991384;28;20039;-84
2023/07/26 03:48:27;;;;;;;7.68;3.28;;;10.20;99.90;;;10.45;100.00;100057.72;4986802;28;20097;-83
2023/07/26 03:50:53;;;;;;;5.88;2.45;;;10.30;99.90;;;10.49;100.00;100064.41;4983339;28;20383;-82
2023/07/26 03:53:19;;;;;;;6.90;3.05;;;10.30;99.90;;;10.53;100.00;100079.22;4986651;28;20042;-82
2023/07/26 03:55:44;;;;;;;8.48;3.00;;;10.40;99.90;;;10.53;100.00;100083.84;4992827;28;20113;-83
2023/07/26 03:58:11;;;;;;;6.47;2.95;;;10.40;99.90;;;10.55;100.00;100087.16;4991257;28;20042;-83
2023/07/26 04:00:37;;;;;;;6.43;2.63;;;10.40;99.90;;;10.57;100.00;100091.34;4991752;28;20043;-82
2023/07/26 04:03:03;;;;;;;6.95;2.85;;;10.40;99.90;;;10.54;100.00;100101.88;4977077;28;20105;-81
2023/07/26 04:05:28;;;;;;;7.70;3.17;;;10.40;99.90;;;10.60;100.00;100101.78;4992079;28;20073;-82
2023/07/26 04:07:54;;;;;;;6.82;3.10;;;10.50;99.90;;;10.63;100.00;100103.22;4990739;28;20038;-83
2023/07/26 04:10:20;;;;;;;5.50;2.40;;;10.50;99.90;;;10.55;100.00;100101.66;4999196;28;20038;-82
2023/07/26 04:12:46;;;;;;;7.10;2.90;;;10.50;99.90;;;10.60;100.00;100098.22;5009345;28;20058;-82
2023/07/26 04:15:11;;;;;;;7.45;2.88;;;10.50;99.90;;;10.66;100.00;100105.50;5005519;28;20037;-82
2023/07/26 04:17:37;;;;;;;5.75;2.90;;;10.60;99.90;;;10.71;100.00;100119.28;5005393;28;20035;-82
2023/07/26 04:20:03;;;;;;;7.57;3.05;;;10.60;99.90;;;10.71;100.00;100112.97;5004733;28;20126;-82
2023/07/26 04:22:29;;;;;;;6.60;3.00;;;10.70;99.90;;;10.82;100.00;100128.56;4992599;28;20046;-82
2023/07/26 04:24:55;;;;;;;6.22;2.65;;;10.70;99.90;;;10.83;100.00;100127.50;5005297;28;20551;-82
2023/07/26 04:27:22;;;;;;;6.32;2.70;;;10.80;99.90;;;10.92;100.00;100137.03;4993972;28;20043;-82
2023/07/26 04:29:48;;;;;;;6.05;2.85;;;10.80;99.90;;;11.00;100.00;100143.22;4992180;28;20113;-81
2023/07/26 04:32:13;;;;;;;6.78;2.80;;;10.90;99.90;;;11.02;100.00;100147.38;5005323;28;20046;-82
2023/07/26 04:34:39;;;;;;;6.95;3.08;;;10.90;99.90;;;11.07;100.00;100152.97;5006925;28;20043;-83
2023/07/26 04:37:07;;;;;;;9.40;2.92;;;11.00;99.90;;;11.14;100.00;100152.03;5011735;28;20034;-82
2023/07/26 04:39:32;;;;;;;6.57;2.67;;;11.00;99.90;;;11.16;100.00;100152.66;5005386;28;20092;-82
2023/07/26 04:41:58;;;;;;;7.00;2.85;;;11.10;99.90;;;11.27;100.00;100167.38;4995719;28;20038;-83
2023/07/26 04:44:24;;;;;;;9.27;3.17;;;11.20;99.90;;;11.32;100.00;100167.53;4996193;28;20039;-82
2023/07/26 04:46:50;;;;;;;7.47;2.33;;;11.30;99.90;;;11.39;100.00;100170.16;4985743;28;20050;-83
2023/07/26 04:49:15;;;;;;;6.00;3.00;;;11.30;99.90;;;11.33;100.00;100175.47;5005087;28;20402;-82
2023/07/26 04:51:41;;;;;;;5.80;2.40;;;11.40;99.90;;;11.39;100.00;100179.19;4996487;28;20088;-83
2023/07/26 04:54:07;;;;;;;7.53;2.22;;;11.40;99.90;;;11.49;100.00;100186.81;5002844;28;20058;-81
2023/07/26 04:56:32;;;;;;;7.93;2.92;;;11.50;99.90;;;11.46;100.00;100185.38;4995333;28;20507;-83
2023/07/26 04:58:58;;;;;;;9.52;2.53;;;11.50;99.90;;;11.54;100.00;100186.94;4997477;28;20488;-82
2023/07/26 05:01:24;;;;;;;5.72;2.83;;;11.50;99.90;;;11.60;100.00;100196.09;5010126;28;20061;-83
2023/07/26 05:03:50;;;;;;;5.03;2.45;;;11.60;99.90;;;11.60;100.00;100207.03;4999491;28;20046;-84
2023/07/26 05:06:15;;;;;;;6.47;2.53;;;11.60;99.90;;;11.70;100.00;100199.09;5002314;28;20038;-84
2023/07/26 05:08:43;;;;;;;3.90;2.55;;;11.70;99.90;;;11.72;100.00;100204.31;5003684;28;20049;-82
2023/07/26 05:11:09;;;;;;;5.47;2.38;;;11.70;99.90;;;11.77;100.00;100215.38;4987097;28;20043;-82
2023/07/26 05:13:34;;;;;;;5.00;2.33;;;11.70;99.90;;;11.84;100.00;100218.81;4990190;28;20046;-82
2023/07/26 05:16:00;;;;;;;6.00;2.47;;;11.80;99.90;;;11.89;100.00;100224.41;4994411;28;20039;-83
2023/07/26 05:18:26;;;;;;;8.73;2.40;;;11.80;99.90;;;11.91;100.00;100219.53;4989233;28;20035;-84
2023/07/26 05:20:52;;;;;;;6.45;2.75;;;11.90;99.90;;;11.98;100.00;100219.44;5006318;28;20034;-83
2023/07/26 05:23:19;;;;;;;7.68;2.40;;;11.90;99.90;;;11.90;100.00;100226.06;5005553;28;20039;-81
2023/07/26 05:25:45;;;;;;;5.40;2.40;;;11.90;99.90;;;11.82;100.00;100226.44;4993862;28;20553;-83
2023/07/26 05:28:10;;;;;;;6.80;2.63;;;12.00;99.90;;;11.95;100.00;100222.63;5009145;28;20093;-85
2023/07/26 05:30:38;;;;;;;7.15;2.60;;;12.00;99.90;;;11.93;100.00;100230.25;4992318;28;20027;-82
2023/07/26 05:33:06;;;;;;;6.95;2.53;;;12.10;99.90;;;12.01;100.00;100238.13;4983166;28;20027;-83
2023/07/26 05:35:32;;;;;;;7.97;2.50;;;12.10;99.90;;;12.05;100.00;100241.22;4980291;28;20395;-83
2023/07/26 05:37:57;;;;;;;4.85;2.45;;;12.20;99.90;;;12.05;100.00;100244.78;4980850;28;20289;-82
2023/07/26 05:40:23;;;;;;;5.28;2.45;;;12.20;99.90;;;12.13;100.00;100243.59;4991528;28;20040;-82
2023/07/26 05:42:50;;;;;;;8.50;3.22;;;12.30;99.90;;;12.19;100.00;100242.63;4984920;28;20047;-83
2023/07/26 05:45:15;;;;;;;6.78;2.72;;;12.30;99.90;;;12.19;100.00;100241.81;4977781;28;20038;-82
2023/07/26 05:47:43;;;;;;;6.95;2.72;;;12.30;99.90;;;12.18;100.00;100245.63;4986020;28;20049;-80
2023/07/26 05:50:10;;;;;;;9.20;2.80;;;12.40;99.90;;;12.35;100.00;100253.94;4990201;28;20054;-85
2023/07/26 05:52:37;;;;;;;6.55;2.58;;;12.40;99.90;;;12.29;100.00;100263.13;4981191;28;20034;-79
2023/07/26 05:55:04;;;;;;;5.53;2.40;;;12.50;99.90;;;12.45;100.00;100261.56;4992786;28;20043;-81
2023/07/26 05:57:30;;;;;;;7.60;2.70;;;12.60;99.90;;;12.62;100.00;100272.59;4990623;28;20039;-80
2023/07/26 05:59:56;;;;;;;7.28;2.40;;;12.70;99.90;;;12.79;100.00;100267.22;4993377;28;20166;-85
2023/07/26 06:02:22;;;;;;;5.28;2.47;;;12.90;99.90;;;12.86;100.00;100264.38;4989970;28;20074;-82
2023/07/26 06:04:48;;;;;;;7.93;2.70;;;13.00;99.90;;;13.14;100.00;100280.00;4979749;28;20093;-85
2023/07/26 06:07:16;;;;;;;7.18;2.42;;;13.30;99.90;;;13.40;100.00;100285.16;4993898;28;20037;-84
2023/07/26 06:09:42;;;;;;;5.22;2.75;;;13.50;99.90;;;13.33;100.00;100286.13;4995523;28;20038;-85
2023/07/26 06:12:08;;;;;;;5.43;2.35;;;13.60;99.90;;;13.56;100.00;100281.66;4988254;28;20405;-84
2023/07/26 06:14:34;;;;;;;5.97;2.42;;;13.70;99.90;;;13.66;100.00;100287.31;4990488;28;20035;-85
2023/07/26 06:17:00;;;;;;;5.53;2.80;;;13.80;99.90;;;13.79;100.00;100293.56;5108780;23;20378;-85
2023/07/26 06:19:26;;;;;;;7.40;2.45;;;13.90;99.90;;;13.86;100.00;100291.50;5042579;28;20120;-81
2023/07/26 06:21:55;;;;;;;4.53;2.20;;;14.00;99.90;;;13.87;100.00;100259.44;5036428;28;20072;-83
2023/07/26 06:24:23;;;;;;;6.70;2.40;;;14.30;99.90;;;14.22;100.00;100294.84;5038973;28;20041;-83
2023/07/26 06:26:48;;;;;;;5.65;2.30;;;14.30;99.90;;;14.31;100.00;100299.91;5050118;28;20033;-83
2023/07/26 06:29:14;;;;;;;5.57;2.58;;;14.50;99.90;;;14.29;100.00;100294.69;5030010;28;20398;-78
2023/07/26 06:31:40;;;;;;;4.85;2.47;;;14.50;99.90;;;14.61;100.00;100304.22;5034305;28;20033;-83
2023/07/26 06:34:06;;;;;;;4.82;2.40;;;14.60;99.90;;;14.80;100.00;100311.09;5025600;28;20719;-81
2023/07/26 06:36:32;;;;;;;5.93;2.03;;;14.90;99.90;;;14.84;100.00;100302.34;5026505;28;20386;-80
2023/07/26 06:38:58;;;;;;;5.20;2.30;;;15.10;99.90;;;15.12;100.00;100317.84;5028902;28;20037;-79
2023/07/26 06:41:24;;;;;;;8.02;2.35;;;15.20;99.90;;;15.41;100.00;100311.31;5036658;28;20025;-81
2023/07/26 06:43:50;;;;;;;4.80;2.17;;;15.50;99.90;;;15.63;100.00;100325.81;5042474;28;20035;-81
2023/07/26 06:46:16;;;;;;;3.63;2.00;;;15.70;99.90;;;15.78;100.00;100318.84;5045982;28;20131;-81
2023/07/26 06:48:41;;;;;;;5.60;2.15;;;15.90;99.90;;;15.62;100.00;100315.09;5037920;28;20037;-80
2023/07/26 06:51:07;;;;;;;5.30;2.00;;;15.90;99.90;;;15.81;100.00;100319.16;5040202;28;20051;-80
2023/07/26 06:53:33;;;;;;;4.97;2.30;;;16.10;99.90;;;16.15;100.00;100326.34;5031179;28;20053;-81
2023/07/26 06:55:59;;;;;;;7.82;2.10;;;16.20;99.90;;;15.93;100.00;100326.44;5025268;28;20041;-79
2023/07/26 06:58:25;;;;;;;4.38;2.00;;;16.10;99.90;;;16.02;100.00;100324.06;5028823;28;20133;-76
2023/07/26 07:00:52;;;;;;;6.05;2.10;;;16.20;99.90;;;16.59;100.00;100322.59;5032588;28;20076;-78
2023/07/26 07:03:18;;;;;;;5.18;2.20;;;16.60;99.90;;;16.89;100.00;100325.78;5025233;28;20045;-78
2023/07/26 07:05:44;;;;;;;3.45;1.63;;;17.00;99.90;;;17.19;100.00;100325.13;5024154;28;20145;-78
2023/07/26 07:08:10;;;;;;;4.82;1.90;;;17.30;99.90;;;17.57;100.00;100324.13;5022723;28;20401;-77
2023/07/26 07:10:35;;;;;;;5.85;1.92;;;17.70;99.90;;;17.68;100.00;100323.91;5017148;28;20042;-78
2023/07/26 07:13:01;;;;;;;3.58;1.67;;;17.90;99.90;;;17.60;100.00;100315.31;5019144;28;20052;-81
2023/07/26 07:15:27;;;;;;;5.13;1.65;;;17.90;99.90;;;17.24;100.00;100327.09;5018044;28;20080;-79
2023/07/26 07:17:52;;;;;;;3.83;1.90;;;17.70;99.90;;;16.87;100.00;100315.03;5021471;28;20249;-79
2023/07/26 07:20:18;;;;;;;4.90;1.73;;;17.40;99.90;;;16.90;100.00;100324.66;5012017;28;20092;-79
2023/07/26 07:22:44;;;;;;;4.75;2.00;;;17.20;99.90;;;16.75;100.00;100317.16;5015996;28;20037;-79
2023/07/26 07:25:11;;;;;;;4.20;1.60;;;17.10;99.90;;;16.89;100.00;100328.53;5018218;28;20569;-79
2023/07/26 07:27:37;;;;;;;4.10;1.90;;;17.10;99.90;;;16.87;100.00;100314.19;5020287;28;20113;-79
2023/07/26 07:30:03;;;;;;;5.22;1.90;;;17.10;99.90;;;16.54;100.00;100326.13;5014266;28;20433;-81
2023/07/26 07:32:29;;;;;;;4.15;1.55;;;16.90;99.90;;;16.78;100.00;100327.63;5025691;28;20108;-80
2023/07/26 07:34:55;;;;;;;5.72;1.67;;;17.00;99.90;;;16.71;100.00;100325.13;5016761;28;20475;-82
2023/07/26 07:37:20;;;;;;;5.65;1.42;;;17.10;99.90;;;16.82;100.00;100331.50;5008421;28;20029;-81
2023/07/26 07:39:46;;;;;;;5.38;1.77;;;17.10;99.90;;;16.68;100.00;100332.00;5021420;28;20482;-82
2023/07/26 07:42:12;;;;;;;4.47;1.45;;;17.00;99.90;;;16.72;100.00;100331.47;5015326;28;20037;-84
2023/07/26 07:44:38;;;;;;;4.03;1.55;;;17.10;99.90;;;16.51;100.00;100334.91;5019078;28;20033;-81
2023/07/26 07:47:04;;;;;;;5.65;1.90;;;17.00;99.90;;;16.49;100.00;100331.59;5020736;28;20045;-82
2023/07/26 07:49:29;;;;;;;6.40;1.80;;;16.80;99.90;;;16.49;100.00;100328.84;5022567;28;20475;-83
2023/07/26 07:51:55;;;;;;;3.65;1.67;;;16.80;99.90;;;16.59;100.00;100322.59;5018750;28;20049;-81
2023/07/26 07:54:21;;;;;;;5.63;1.70;;;16.90;99.90;;;16.95;100.00;100333.81;5020559;28;20494;-82
2023/07/26 07:56:48;;;;;;;4.03;1.80;;;17.10;99.90;;;16.58;100.00;100333.84;5012403;28;20130;-79
2023/07/26 07:59:14;;;;;;;5.82;1.55;;;17.10;99.90;;;16.38;100.00;100333.44;5019990;28;20037;-82
2023/07/26 08:01:40;;;;;;;3.53;1.50;;;16.90;99.90;;;16.51;100.00;100337.66;5012979;28;20114;-81
2023/07/26 08:04:06;;;;;;;3.78;1.50;;;16.80;99.90;;;16.27;100.00;100341.88;5011960;28;20034;-82
2023/07/26 08:06:32;;;;;;;5.72;1.58;;;16.60;99.90;;;16.28;100.00;100343.53;5010845;28;20061;-80
2023/07/26 08:08:58;;;;;;;3.78;1.40;;;16.50;99.90;;;16.34;100.00;100343.31;5019503;28;20397;-83
2023/07/26 08:11:24;;;;;;;6.20;1.77;;;16.60;99.90;;;16.67;100.00;100332.25;5027368;28;20037;-82
2023/07/26 08:13:50;;;;;;;4.05;1.50;;;16.80;99.90;;;17.08;100.00;100329.75;5008730;28;20029;-81
2023/07/26 08:16:15;;;;;;;6.07;1.65;;;17.20;99.90;;;17.32;100.00;100320.19;5014358;28;20398;-81
2023/07/26 08:18:41;;;;;;;4.72;1.40;;;17.60;99.90;;;17.22;100.00;100312.72;5025092;28;20086;-79
2023/07/26 08:21:07;;;;;;;3.58;1.40;;;17.80;99.90;;;17.83;100.00;100308.47;5025685;28;20053;-82
2023/07/26 08:23:33;;;;;;;4.00;1.45;;;18.10;99.90;;;17.42;100.00;100323.00;5023019;28;20049;-84
2023/07/26 08:26:04;;;;;;;3.78;1.55;;;18.00;99.90;;;17.93;100.00;100310.44;5015533;28;20067;-86
2023/07/26 08:28:29;;;;;;;3.47;1.38;;;18.30;99.90;;;17.75;100.00;100320.03;5015246;28;20096;-83
2023/07/26 08:30:55;;;;;;;1.80;1.00;;;18.30;99.90;;;17.82;100.00;100317.88;5015480;28;20033;-82
2023/07/26 08:33:21;;;;;;;4.05;1.20;;;18.30;99.90;;;17.03;100.00;100318.72;5016204;28;20494;-82
2023/07/26 08:35:47;;;;;;;4.13;1.20;;;17.80;99.90;;;17.17;100.00;100321.81;5025824;28;20030;-81
2023/07/26 08:38:12;;;;;;;3.60;1.17;;;17.60;99.90;;;17.33;100.00;100327.38;5023714;28;20038;-83
2023/07/26 08:40:49;;;;;;;3.83;1.13;;;17.60;99.90;;;17.20;100.00;100321.28;5021936;28;20040;-84
2023/07/26 08:43:20;;;;;;;7.22;1.40;;;17.50;99.90;;;17.38;100.00;100328.22;5025230;28;20053;-84
2023/07/26 08:45:47;;;;;;;3.70;1.20;;;17.50;99.90;;;17.33;100.00;100324.63;5021349;28;20128;-83
2023/07/26 08:48:13;;;;;;;3.17;1.45;;;17.60;99.90;;;17.45;100.00;100330.75;5015260;28;20378;-83
2023/07/26 08:50:40;;;;;;;2.25;1.25;;;17.60;99.90;;;17.93;100.00;100329.75;5015488;28;20088;-81
2023/07/26 08:53:07;;;;;;;4.70;1.33;;;18.00;99.90;;;18.61;100.00;100325.06;5019848;28;20042;-81
2023/07/26 08:55:35;;;;;;;2.25;1.10;;;18.60;99.90;;;19.57;100.00;100321.41;5014850;28;20449;-81
2023/07/26 08:58:03;;;;;;;2.70;0.95;;;19.40;99.90;;;18.72;100.00;100315.63;5015452;28;20109;-80
2023/07/26 09:00:30;;;;;;;2.15;1.00;;;19.40;99.90;;;18.05;95.78;100321.25;5016623;28;20042;-80
2023/07/26 09:02:59;;;;;;;4.18;0.82;;;18.80;99.80;;;18.09;100.00;100320.38;5020835;28;20026;-79
2023/07/26 09:05:25;;;;;;;2.63;0.98;;;18.60;99.90;;;17.67;100.00;100341.53;5030421;28;20128;-83
2023/07/26 09:07:51;;;;;;;2.25;0.90;;;18.10;99.90;;;17.73;100.00;100333.28;5016996;28;20045;-81
2023/07/26 09:10:29;;;;;;;4.63;1.23;;;17.90;99.90;;;17.85;100.00;100335.78;5016588;28;20037;-81
2023/07/26 09:13:15;;;;;;;3.00;1.20;;;17.90;99.90;;;17.67;100.00;100330.50;5034547;28;20124;-82
2023/07/26 09:15:43;;;;;;;2.72;1.10;;;18.00;99.90;;;17.90;100.00;100333.88;5017701;28;20038;-82
2023/07/26 09:18:10;;;;;;;4.80;1.30;;;17.90;99.90;;;18.01;100.00;100331.09;5019939;28;20065;-81
2023/07/26 09:20:37;;;;;;;3.40;1.60;;;18.10;99.90;;;17.91;100.00;100332.75;5020162;28;20045;-81
2023/07/26 09:23:05;;;;;;;3.72;1.55;;;18.10;99.90;;;18.00;100.00;100335.81;5001717;28;21427;-83
2023/07/26 09:25:39;;;;;;;4.18;1.30;;;18.20;99.90;;;18.41;100.00;100329.50;5026367;28;20042;-83
2023/07/26 09:28:11;;;;;;;2.67;1.27;;;18.50;99.90;;;18.76;100.00;100326.97;5016178;28;20133;-82
2023/07/26 09:30:50;;;;;;;3.75;1.70;;;18.80;99.90;;;19.06;100.00;100320.53;5027813;28;20041;-84
2023/07/26 09:33:17;;;;;;;5.97;1.50;;;19.10;99.90;;;18.97;100.00;100313.91;5021859;28;20046;-79
2023/07/26 09:35:49;;;;;;;4.47;1.73;;;19.10;99.90;;;18.89;100.00;100303.44;5015378;28;20038;-84
2023/07/26 09:38:24;;;;;;;5.95;1.55;;;19.10;99.90;;;18.68;100.00;100303.50;5026540;28;20044;-81
2023/07/26 09:40:50;;;;;;;4.18;1.50;;;18.90;99.90;;;18.42;100.00;100303.53;5020964;28;20038;-84
2023/07/26 09:43:36;;;;;;;4.50;1.65;;;18.70;99.90;;;18.81;100.00;100302.91;5016782;28;20052;-82
2023/07/26 09:46:05;;;;;;;4.55;1.95;;;18.90;99.90;;;19.03;100.00;100296.22;5028947;28;20296;-83
2023/07/26 09:48:33;;;;;;;2.28;1.27;;;19.10;99.90;;;19.80;100.00;100295.00;5028115;28;20034;-84
2023/07/26 09:51:08;;;;;;;3.70;1.48;;;19.70;99.90;;;19.73;100.00;100290.91;5032374;28;20034;-79
2023/07/26 09:53:56;;;;;;;4.65;1.58;;;20.00;99.90;;;19.38;100.00;100297.19;5017874;28;20084;-84
2023/07/26 09:56:28;;;;;;;3.35;1.60;;;19.70;99.90;;;19.19;100.00;100298.94;5007604;28;20049;-85
2023/07/26 09:58:53;;;;;;;3.70;1.70;;;19.40;99.90;;;19.03;100.00;100301.75;5033569;28;20050;-82
2023/07/26 10:01:23;;;;;;;5.30;1.60;;;19.30;99.90;;;19.85;100.00;100291.34;5034345;28;20046;-82
2023/07/26 10:03:54;;;;;;;4.88;1.45;;;19.90;99.90;;;19.84;100.00;100286.94;5040526;28;20038;-86
2023/07/26 10:06:22;;;;;;;4.95;1.45;;;20.00;99.90;;;20.25;100.00;100271.94;5031273;28;20049;-81
2023/07/26 10:08:49;;;;;;;2.75;1.50;;;20.30;99.90;;;20.35;92.21;100271.03;5031419;28;20029;-84
2023/07/26 10:11:23;;;;;;;3.30;1.20;;;20.60;99.30;;;20.02;85.70;100271.59;5033632;28;20045;-82